Time;durP1;ratioP1;P1;durP2;ratioP2;P2;SDS_P1;SDS_P2;PMS_P1;PMS_P2;Temp;Humidity;BMP_temperature;BMP_pressure;BME280_temperature;BME280_humidity;BME280_pressure;Samples;Min_cycle;Max_cycle;Signal;HPM_P1;HPM_P2
2021/07/03 00:09:56;;;;;;;0.70;0.37;;;22.70;99.90;;;;;;20902459;28;20201;-65
2021/07/03 00:20:01;;;;;;;0.23;0.23;;;22.50;99.90;;;;;;20884779;28;20221;-65
2021/07/03 00:30:06;;;;;;;0.30;0.20;;;22.20;99.90;;;;;;20902377;28;20228;-65
2021/07/03 00:40:14;;;;;;;1.07;0.67;;;22.20;99.90;;;;;;20885177;28;20225;-66
2021/07/03 00:50:17;;;;;;;1.40;1.07;;;22.00;99.90;;;;;;20887460;28;20685;-66
2021/07/03 01:00:23;;;;;;;0.70;0.70;;;21.90;99.90;;;;;;20904002;28;20694;-65
2021/07/03 01:10:29;;;;;;;1.70;1.53;;;21.90;99.90;;;;;;20902472;28;20281;-66
2021/07/03 01:20:34;;;;;;;1.23;0.97;;;21.90;99.90;;;;;;20901660;28;20288;-66
2021/07/03 01:30:39;;;;;;;3.50;1.30;;;21.80;99.90;;;;;;20901002;28;20300;-66
2021/07/03 01:40:44;;;;;;;1.13;1.07;;;21.70;99.90;;;;;;20900425;28;20620;-66
2021/07/03 01:50:49;;;;;;;0.80;0.80;;;21.60;99.90;;;;;;20882809;28;20221;-66
2021/07/03 02:00:55;;;;;;;0.70;0.60;;;21.70;99.90;;;;;;20899873;28;20233;-66
2021/07/03 02:11:01;;;;;;;0.60;0.60;;;21.70;99.90;;;;;;20881897;28;20228;-67
2021/07/03 02:21:04;;;;;;;0.90;0.67;;;21.70;99.90;;;;;;20899666;28;20193;-67
2021/07/03 02:31:09;;;;;;;3.83;1.70;;;21.70;99.90;;;;;;20868079;28;20678;-68
2021/07/03 02:41:13;;;;;;;0.83;0.70;;;21.60;99.90;;;;;;20914542;28;20197;-66
2021/07/03 02:51:18;;;;;;;1.67;0.60;;;21.50;99.90;;;;;;20913207;28;20303;-66
2021/07/03 03:01:22;;;;;;;0.50;0.40;;;21.40;99.90;;;;;;20913594;28;20288;-66
2021/07/03 03:11:27;;;;;;;1.23;0.93;;;21.30;99.90;;;;;;20912728;28;20283;-67
2021/07/03 03:21:30;;;;;;;0.60;0.60;;;21.30;99.90;;;;;;20894182;28;20201;-66
2021/07/03 03:31:36;;;;;;;1.53;1.20;;;21.30;99.90;;;;;;20910291;28;20229;-66
2021/07/03 03:41:40;;;;;;;0.77;0.77;;;21.20;99.90;;;;;;20909232;28;20202;-66
2021/07/03 03:51:45;;;;;;;0.73;0.57;;;21.10;99.90;;;;;;20908448;28;20239;-66
2021/07/03 04:01:49;;;;;;;1.23;0.90;;;21.10;99.90;;;;;;20958537;23;20577;-67
2021/07/03 04:11:55;;;;;;;2.37;0.60;;;21.10;99.90;;;;;;21072645;28;20722;-67
2021/07/03 04:22:02;;;;;;;1.63;0.40;;;21.10;99.90;;;;;;21068507;28;20196;-69
2021/07/03 04:32:08;;;;;;;0.73;0.40;;;21.40;99.90;;;;;;21045728;28;20558;-68
2021/07/03 04:42:12;;;;;;;0.50;0.50;;;21.50;99.90;;;;;;20986893;28;20649;-69
2021/07/03 04:52:17;;;;;;;1.33;0.87;;;21.60;99.90;;;;;;20985185;28;20315;-68
2021/07/03 05:02:20;;;;;;;1.13;1.03;;;21.80;99.90;;;;;;20966306;28;20221;-68
2021/07/03 05:12:25;;;;;;;0.70;0.70;;;21.90;99.90;;;;;;20983635;28;20243;-68
2021/07/03 05:22:29;;;;;;;0.63;0.53;;;22.10;99.90;;;;;;20983577;28;20196;-68
2021/07/03 05:32:34;;;;;;;1.87;0.73;;;22.40;99.90;;;;;;21006097;28;20319;-67
2021/07/03 05:42:39;;;;;;;1.53;0.80;;;22.70;99.90;;;;;;21065333;28;20196;-66
2021/07/03 05:52:45;;;;;;;3.17;2.13;;;23.10;99.90;;;;;;21066119;28;20292;-68
2021/07/03 06:02:49;;;;;;;1.33;0.93;;;23.40;99.90;;;;;;21065755;28;20228;-67
2021/07/03 06:12:54;;;;;;;0.68;0.68;;;23.70;99.90;;;;;;21080472;28;20227;-68
2021/07/03 06:22:58;;;;;;;0.82;0.65;;;24.10;99.90;;;;;;21066859;28;20196;-68
2021/07/03 06:33:03;;;;;;;0.93;0.88;;;24.40;99.90;;;;;;21065589;28;20227;-68
2021/07/03 06:43:06;;;;;;;0.60;0.60;;;24.60;99.90;;;;;;20995747;28;20220;-67
2021/07/03 06:53:11;;;;;;;1.15;0.60;;;24.90;99.90;;;;;;20994075;28;20252;-68
2021/07/03 07:03:15;;;;;;;0.75;0.73;;;25.20;99.90;;;;;;20974720;28;20228;-68
2021/07/03 07:13:20;;;;;;;2.28;2.03;;;25.30;99.90;;;;;;20991873;28;20276;-68
2021/07/03 07:23:27;;;;;;;8.90;1.60;;;25.40;99.90;;;;;;20990724;28;20626;-68
2021/07/03 07:33:32;;;;;;;11.38;2.55;;;26.00;99.90;;;;;;21003175;28;20273;-67
2021/07/03 07:43:36;;;;;;;2.47;0.93;;;26.60;99.90;;;;;;21072586;28;20204;-67
2021/07/03 07:53:41;;;;;;;0.50;0.32;;;26.00;99.90;;;;;;21070476;28;20255;-68
2021/07/03 08:03:45;;;;;;;1.08;0.82;;;26.20;99.90;;;;;;21069313;28;20621;-67
2021/07/03 08:13:50;;;;;;;0.88;0.85;;;26.30;99.90;;;;;;21069969;28;20322;-67
2021/07/03 08:23:54;;;;;;;0.88;0.88;;;25.80;99.90;;;;;;21050717;28;20219;-67
2021/07/03 08:33:59;;;;;;;0.73;0.70;;;26.00;99.90;;;;;;21013989;28;20304;-68
2021/07/03 08:44:03;;;;;;;9.10;1.40;;;26.30;99.90;;;;;;20983120;28;20284;-67
2021/07/03 08:54:08;;;;;;;1.40;1.02;;;26.50;99.90;;;;;;20982367;28;20256;-68
2021/07/03 09:04:12;;;;;;;1.38;1.08;;;26.60;99.90;;;;;;20981426;28;20232;-65
2021/07/03 09:14:17;;;;;;;5.15;1.73;;;26.80;99.90;;;;;;20994562;28;20645;-69
2021/07/03 09:24:21;;;;;;;1.45;1.00;;;26.70;99.90;;;;;;21063055;28;20196;-68
2021/07/03 09:34:26;;;;;;;15.73;2.55;;;26.90;99.90;;;;;;21064238;28;20235;-69
2021/07/03 09:44:30;;;;;;;0.80;0.80;;;27.30;99.90;;;;;;21063124;28;20238;-69
2021/07/03 09:54:35;;;;;;;2.97;1.00;;;27.50;99.90;;;;;;21062929;28;20255;-70
2021/07/03 10:04:38;;;;;;;1.30;0.80;;;27.30;99.90;;;;;;21044306;28;20755;-69
2021/07/03 10:14:45;;;;;;;2.15;0.73;;;26.80;99.90;;;;;;21075741;28;20321;-72
2021/07/03 10:24:52;;;;;;;1.50;1.40;;;26.70;99.90;;;;;;21046230;28;20634;-70
2021/07/03 10:35:08;;;;;;;1.30;0.68;;;27.00;99.90;;;;;;20999761;28;20217;-67
2021/07/03 10:45:14;;;;;;;0.88;0.82;;;27.30;99.90;;;;;;20976862;28;20283;-68
2021/07/03 10:55:29;;;;;;;0.50;0.50;;;28.40;99.90;;;;;;20991117;28;20221;-68
2021/07/03 11:05:35;;;;;;;1.77;1.27;;;28.60;99.90;;;;;;20997738;28;20583;-68
2021/07/03 11:16:02;;;;;;;1.20;1.08;;;28.60;99.90;;;;;;20971412;28;20252;-68
2021/07/03 11:26:11;;;;;;;1.95;1.15;;;29.60;99.90;;;;;;20990119;28;20204;-70
2021/07/03 11:36:16;;;;;;;2.72;1.25;;;30.50;99.90;;;;;;21043833;28;20216;-68
2021/07/03 11:46:20;;;;;;;5.03;1.45;;;30.20;99.90;;;;;;21072038;28;20201;-70
2021/07/03 11:56:25;;;;;;;2.40;2.03;;;29.50;99.90;;;;;;21068462;28;20224;-69
2021/07/03 12:06:30;;;;;;;5.97;1.40;;;30.00;99.90;;;;;;21068402;28;20307;-69
2021/07/03 12:16:35;;;;;;;1.40;1.15;;;31.20;99.90;;;;;;21068158;28;20239;-69
2021/07/03 12:26:41;;;;;;;2.75;1.77;;;31.80;99.90;;;;;;21066507;28;20264;-68
2021/07/03 12:36:50;;;;;;;2.63;0.98;;;33.30;99.90;;;;;;21009948;28;20747;-69
2021/07/03 12:46:59;;;;;;;5.38;1.40;;;32.60;99.90;;;;;;20985085;28;20280;-72
2021/07/03 12:57:05;;;;;;;10.07;1.70;;;32.10;99.90;;;;;;20983106;28;20696;-71
2021/07/03 13:07:14;;;;;;;2.13;1.08;;;32.10;99.90;;;;;;20979564;28;20677;-69
2021/07/03 13:17:19;;;;;;;6.22;2.30;;;31.80;99.90;;;;;;20978961;28;20314;-69
2021/07/03 13:27:23;;;;;;;2.22;0.95;;;31.00;99.90;;;;;;20978175;28;20661;-67
2021/07/03 13:37:28;;;;;;;1.60;1.42;;;30.00;99.90;;;;;;21041511;28;20749;-68
2021/07/03 13:47:31;;;;;;;1.30;0.90;;;28.70;99.90;;;;;;21059972;28;20196;-68
2021/07/03 13:57:37;;;;;;;4.82;1.77;;;29.10;99.90;;;;;;21042933;28;20231;-65
2021/07/03 14:07:40;;;;;;;2.22;1.13;;;30.10;99.90;;;;;;21060251;28;20285;-67
2021/07/03 14:17:45;;;;;;;1.38;0.98;;;31.00;99.90;;;;;;21058531;28;20247;-68
2021/07/03 14:27:50;;;;;;;2.58;1.38;;;29.20;99.90;;;;;;21047211;28;20192;-68
2021/07/03 14:37:55;;;;;;;1.75;1.65;;;29.50;99.90;;;;;;21008972;28;20308;-70
2021/07/03 14:47:58;;;;;;;1.95;1.77;;;30.50;99.90;;;;;;20994400;28;20207;-67
2021/07/03 14:58:03;;;;;;;3.33;1.20;;;30.00;99.90;;;;;;20993398;28;20311;-67
2021/07/03 15:08:07;;;;;;;1.13;1.05;;;30.60;99.90;;;;;;20973258;28;20664;-68
2021/07/03 15:18:12;;;;;;;6.40;1.55;;;30.30;99.90;;;;;;20971820;28;20792;-67
2021/07/03 15:28:15;;;;;;;2.17;1.30;;;32.90;99.90;;;;;;20995774;28;20693;-69
2021/07/03 15:38:21;;;;;;;1.02;0.82;;;32.00;99.90;;;;;;21056741;28;20247;-68
2021/07/03 15:48:25;;;;;;;2.10;1.45;;;33.30;99.90;;;;;;21069531;28;20283;-64
2021/07/03 15:58:31;;;;;;;4.43;1.52;;;33.50;99.90;;;;;;21067931;28;20758;-68
2021/07/03 16:08:34;;;;;;;3.92;1.98;;;33.60;99.90;;;;;;21048496;28;20323;-68
2021/07/03 16:18:39;;;;;;;1.85;1.23;;;33.50;99.90;;;;;;21033340;28;20308;-67
2021/07/03 16:28:43;;;;;;;6.03;1.60;;;33.10;99.90;;;;;;21027857;28;20199;-68
2021/07/03 16:38:49;;;;;;;7.82;1.13;;;33.00;99.90;;;;;;21045141;28;20269;-69
2021/07/03 16:48:52;;;;;;;1.73;1.35;;;32.70;99.90;;;;;;21065967;28;20279;-69
2021/07/03 16:58:57;;;;;;;2.83;2.10;;;32.70;99.90;;;;;;21066706;28;20533;-68
2021/07/03 17:09:01;;;;;;;4.47;2.20;;;32.10;99.90;;;;;;21059222;28;20430;-69
2021/07/03 17:19:06;;;;;;;2.33;1.58;;;32.40;99.90;;;;;;21075384;28;20220;-69
2021/07/03 17:29:09;;;;;;;1.83;1.73;;;31.90;99.90;;;;;;21065814;28;20598;-68
2021/07/03 17:39:15;;;;;;;34.33;1.83;;;32.00;99.90;;;;;;20987512;28;20745;-68
2021/07/03 17:49:18;;;;;;;1.92;1.42;;;31.60;99.90;;;;;;20977627;28;20203;-68
2021/07/03 17:59:23;;;;;;;0.93;0.90;;;29.90;99.90;;;;;;20976664;28;20275;-67
2021/07/03 18:09:27;;;;;;;1.27;1.17;;;30.30;99.90;;;;;;20991680;28;20342;-67
2021/07/03 18:19:33;;;;;;;2.47;1.42;;;29.90;99.90;;;;;;20991430;28;20299;-68
2021/07/03 18:29:36;;;;;;;5.03;2.75;;;29.50;99.90;;;;;;20991627;28;20220;-64
2021/07/03 18:39:41;;;;;;;0.98;0.88;;;28.50;99.90;;;;;;21073598;28;20616;-66
2021/07/03 18:49:45;;;;;;;3.50;1.30;;;27.30;99.90;;;;;;21072690;28;20216;-68
2021/07/03 18:59:50;;;;;;;1.13;0.70;;;26.90;99.90;;;;;;21052964;28;20224;-67
2021/07/03 19:09:54;;;;;;;0.80;0.80;;;26.70;99.90;;;;;;21069782;28;20228;-68
2021/07/03 19:19:59;;;;;;;1.55;1.33;;;26.60;99.90;;;;;;21051895;28;20207;-67
2021/07/03 19:30:03;;;;;;;1.50;0.95;;;26.30;99.90;;;;;;21068034;28;20216;-66
2021/07/03 19:40:12;;;;;;;0.88;0.68;;;26.20;99.90;;;;;;20986506;28;20583;-67
2021/07/03 19:50:16;;;;;;;1.13;0.90;;;25.90;99.90;;;;;;20968470;28;20220;-68
2021/07/03 20:00:24;;;;;;;1.63;1.33;;;25.80;99.90;;;;;;20990833;28;20302;-68
2021/07/03 20:10:28;;;;;;;0.68;0.68;;;25.80;99.90;;;;;;21067846;28;20678;-67
2021/07/03 20:20:35;;;;;;;1.42;1.08;;;25.70;99.90;;;;;;21043165;28;20292;-66
2021/07/03 20:30:39;;;;;;;4.70;2.47;;;25.40;99.90;;;;;;21067598;28;20227;-68
2021/07/03 20:40:48;;;;;;;1.92;1.30;;;25.60;99.90;;;;;;21070462;28;20650;-67
2021/07/03 20:50:52;;;;;;;0.77;0.65;;;25.50;99.90;;;;;;21068848;28;20302;-68
2021/07/03 21:00:57;;;;;;;2.60;1.00;;;25.10;99.90;;;;;;21064614;28;20220;-68
2021/07/03 21:11:02;;;;;;;1.95;1.33;;;25.10;99.90;;;;;;21063536;28;20329;-67
2021/07/03 21:21:07;;;;;;;0.65;0.65;;;25.00;99.90;;;;;;21066737;28;20192;-68
2021/07/03 21:31:11;;;;;;;1.92;1.05;;;24.70;99.90;;;;;;21054568;28;20231;-69
2021/07/03 21:41:17;;;;;;;1.30;1.08;;;24.50;99.90;;;;;;21051079;28;20239;-67
2021/07/03 21:51:21;;;;;;;7.22;0.68;;;24.60;99.90;;;;;;21034564;28;20707;-66
2021/07/03 22:01:26;;;;;;;1.13;0.73;;;24.50;99.90;;;;;;21036947;28;20640;-68
2021/07/03 22:11:39;;;;;;;1.20;0.65;;;24.20;99.90;;;;;;21033594;28;20266;-67
2021/07/03 22:21:45;;;;;;;1.08;0.90;;;24.00;99.90;;;;;;21040872;28;20220;-67
2021/07/03 22:31:51;;;;;;;3.28;1.38;;;24.00;99.90;;;;;;21031151;28;20311;-67
2021/07/03 22:41:57;;;;;;;1.60;0.70;;;24.00;99.90;;;;;;21038518;28;20279;-67
2021/07/03 22:52:00;;;;;;;1.77;1.35;;;23.60;99.90;;;;;;21065724;28;20310;-67
2021/07/03 23:02:06;;;;;;;0.93;0.88;;;23.60;99.90;;;;;;21045355;28;20219;-67
2021/07/03 23:12:10;;;;;;;0.52;0.45;;;23.40;99.90;;;;;;21065970;28;20277;-66
2021/07/03 23:22:15;;;;;;;0.75;0.75;;;23.50;99.90;;;;;;21076982;28;20688;-65
2021/07/03 23:32:19;;;;;;;0.40;0.37;;;23.30;99.90;;;;;;21074747;28;20243;-67
2021/07/03 23:42:24;;;;;;;0.70;0.63;;;23.20;99.90;;;;;;21072920;28;20626;-66
2021/07/03 23:52:28;;;;;;;1.00;0.83;;;23.10;99.90;;;;;;21072848;28;20367;-67
